Time;durP1;ratioP1;P1;durP2;ratioP2;P2;SDS_P1;SDS_P2;PMS_P1;PMS_P2;Temp;Humidity;BMP_temperature;BMP_pressure;BME280_temperature;BME280_humidity;BME280_pressure;Samples;Min_cycle;Max_cycle;Signal;HPM_P1;HPM_P2
2023/06/23 00:00:36;;;;;;;6.47;2.90;;;19.20;99.90;;;;;;5091262;28;20410;-70
2023/06/23 00:03:02;;;;;;;6.50;3.13;;;19.20;99.90;;;;;;5091766;28;20402;-70
2023/06/23 00:05:28;;;;;;;6.57;2.87;;;19.20;99.90;;;;;;5092178;28;20405;-71
2023/06/23 00:07:54;;;;;;;6.63;2.67;;;19.20;99.90;;;;;;5091894;28;20406;-71
2023/06/23 00:10:20;;;;;;;5.25;2.75;;;19.20;99.90;;;;;;5092718;28;20902;-70
2023/06/23 00:12:47;;;;;;;5.83;2.80;;;19.20;99.90;;;;;;5090608;28;20409;-71
2023/06/23 00:15:14;;;;;;;5.88;2.85;;;19.20;99.90;;;;;;5093096;28;20417;-71
2023/06/23 00:17:43;;;;;;;7.28;3.38;;;19.20;99.90;;;;;;5091731;28;20398;-71
2023/06/23 00:20:12;;;;;;;7.03;3.20;;;19.20;99.90;;;;;;5091995;28;20895;-71
2023/06/23 00:22:39;;;;;;;6.10;2.97;;;19.20;99.90;;;;;;5091142;28;20458;-71
2023/06/23 00:25:05;;;;;;;6.18;2.95;;;19.20;99.90;;;;;;5094764;28;20506;-71
2023/06/23 00:27:30;;;;;;;6.43;2.75;;;19.20;99.90;;;;;;5109104;28;20479;-71
2023/06/23 00:29:56;;;;;;;5.53;3.00;;;19.20;99.90;;;;;;5107098;28;20467;-71
2023/06/23 00:32:22;;;;;;;6.33;2.80;;;19.20;99.90;;;;;;5109818;28;20769;-70
2023/06/23 00:34:47;;;;;;;5.75;2.80;;;19.20;99.90;;;;;;5106405;28;20404;-71
2023/06/23 00:37:13;;;;;;;7.07;2.90;;;19.20;99.90;;;;;;5109449;28;20411;-70
2023/06/23 00:39:39;;;;;;;6.22;2.80;;;19.20;99.90;;;;;;5088328;28;20438;-71
2023/06/23 00:42:06;;;;;;;8.32;3.00;;;19.20;99.90;;;;;;5108505;28;20412;-71
2023/06/23 00:44:33;;;;;;;8.67;3.40;;;19.30;99.90;;;;;;5107797;28;20424;-71
2023/06/23 00:47:01;;;;;;;8.48;2.90;;;19.20;99.90;;;;;;5109422;28;20400;-71
2023/06/23 00:49:26;;;;;;;6.32;3.00;;;19.30;99.90;;;;;;5090271;28;20400;-71
2023/06/23 00:51:53;;;;;;;7.35;3.15;;;19.20;99.90;;;;;;5091540;28;20913;-71
2023/06/23 00:54:19;;;;;;;5.85;2.65;;;19.30;99.90;;;;;;5103387;28;20498;-71
2023/06/23 00:56:47;;;;;;;6.30;3.08;;;19.20;99.90;;;;;;5101572;28;20800;-71
2023/06/23 00:59:12;;;;;;;7.82;3.05;;;19.20;99.90;;;;;;5089952;28;20403;-71
2023/06/23 01:01:38;;;;;;;6.75;2.83;;;19.30;99.90;;;;;;5101790;28;20404;-71
2023/06/23 01:04:03;;;;;;;6.57;2.90;;;19.20;99.90;;;;;;5107560;27;20883;-71
2023/06/23 01:06:56;;;;;;;7.03;2.95;;;19.20;99.90;;;;;;5108721;28;20401;-71
2023/06/23 01:09:42;;;;;;;7.55;3.08;;;19.20;99.90;;;;;;5099137;28;20409;-71
2023/06/23 01:12:14;;;;;;;4.70;2.30;;;19.20;99.90;;;;;;5108448;28;20412;-71
2023/06/23 01:14:56;;;;;;;6.70;2.75;;;19.20;99.90;;;;;;5108978;28;20396;-71
2023/06/23 01:17:30;;;;;;;5.40;2.20;;;19.20;99.90;;;;;;5085243;28;21096;-71
2023/06/23 01:20:25;;;;;;;5.32;2.60;;;19.20;99.90;;;;;;5106954;28;20406;-71
2023/06/23 01:23:06;;;;;;;6.13;2.83;;;19.20;99.90;;;;;;5096193;28;20930;-71
2023/06/23 01:25:55;;;;;;;5.88;2.60;;;19.20;99.90;;;;;;5087022;28;20494;-71
2023/06/23 01:28:52;;;;;;;5.85;2.50;;;19.20;99.90;;;;;;5091301;28;20418;-71
2023/06/23 01:31:31;;;;;;;5.70;2.33;;;19.30;99.90;;;;;;5058059;28;20422;-71
2023/06/23 01:34:04;;;;;;;6.28;2.63;;;19.20;99.90;;;;;;5092277;28;20405;-71
2023/06/23 01:36:40;;;;;;;6.03;2.70;;;19.30;99.90;;;;;;5095207;28;20470;-72
2023/06/23 01:39:11;;;;;;;8.02;2.50;;;19.30;99.90;;;;;;5093382;28;20398;-71
2023/06/23 01:42:07;;;;;;;5.45;2.50;;;19.30;99.90;;;;;;5089829;28;20413;-71
2023/06/23 01:44:35;;;;;;;7.07;2.45;;;19.30;99.90;;;;;;5095361;28;20519;-72
2023/06/23 01:47:04;;;;;;;5.30;2.40;;;19.30;99.90;;;;;;5093673;28;20410;-72
2023/06/23 01:49:37;;;;;;;7.63;3.05;;;19.30;99.90;;;;;;5096352;28;20445;-71
2023/06/23 01:52:06;;;;;;;7.43;2.55;;;19.30;99.90;;;;;;5091650;28;20485;-71
2023/06/23 01:54:33;;;;;;;8.05;2.50;;;19.30;99.90;;;;;;5089437;28;20396;-72
2023/06/23 01:57:00;;;;;;;6.65;2.70;;;19.30;99.90;;;;;;5093786;28;20402;-72
2023/06/23 01:59:27;;;;;;;5.68;2.70;;;19.30;99.90;;;;;;5095203;28;20406;-71
2023/06/23 02:01:54;;;;;;;7.45;2.63;;;19.30;99.90;;;;;;5094936;28;20436;-71
2023/06/23 02:04:21;;;;;;;8.03;2.63;;;19.30;99.90;;;;;;5099930;28;20420;-71
2023/06/23 02:06:50;;;;;;;6.20;2.80;;;19.30;99.90;;;;;;5095795;28;20487;-72
2023/06/23 02:09:22;;;;;;;7.67;2.50;;;19.30;99.90;;;;;;5085101;28;20470;-71
2023/06/23 02:11:49;;;;;;;5.25;2.47;;;19.30;99.90;;;;;;5089628;28;20492;-72
2023/06/23 02:14:18;;;;;;;5.23;2.30;;;19.30;99.90;;;;;;5092370;28;21233;-72
2023/06/23 02:16:45;;;;;;;5.60;2.88;;;19.30;99.90;;;;;;5088964;28;20402;-71
2023/06/23 02:19:12;;;;;;;6.65;2.60;;;19.30;99.90;;;;;;5080478;28;20794;-71
2023/06/23 02:21:39;;;;;;;5.28;2.53;;;19.20;99.90;;;;;;5092454;28;20485;-72
2023/06/23 02:24:06;;;;;;;5.80;2.47;;;19.30;99.90;;;;;;5091433;28;20772;-71
2023/06/23 02:26:35;;;;;;;7.03;2.28;;;19.20;99.90;;;;;;5091088;28;20430;-71
2023/06/23 02:29:03;;;;;;;5.60;2.10;;;19.20;99.90;;;;;;5087893;28;20437;-71
2023/06/23 02:31:28;;;;;;;4.68;2.15;;;19.30;99.90;;;;;;5089423;28;20395;-72
2023/06/23 02:33:54;;;;;;;4.80;2.30;;;19.30;99.90;;;;;;5086523;28;20410;-71
2023/06/23 02:36:23;;;;;;;5.10;2.10;;;19.20;99.90;;;;;;5088712;28;20402;-71
2023/06/23 02:38:52;;;;;;;6.53;2.33;;;19.30;99.90;;;;;;5087843;28;20926;-71
2023/06/23 02:41:20;;;;;;;5.60;2.45;;;19.30;99.90;;;;;;5088519;28;20814;-71
2023/06/23 02:43:54;;;;;;;5.25;2.17;;;19.30;99.90;;;;;;5086963;28;20433;-71
2023/06/23 02:46:24;;;;;;;7.40;2.25;;;19.30;99.90;;;;;;5069201;28;20425;-72
2023/06/23 02:48:53;;;;;;;7.17;2.80;;;19.30;99.90;;;;;;5092502;28;20436;-71
2023/06/23 02:51:22;;;;;;;7.03;2.65;;;19.30;99.90;;;;;;5080198;28;20398;-71
2023/06/23 02:54:04;;;;;;;6.38;2.67;;;19.30;99.90;;;;;;5088239;28;20496;-71
2023/06/23 02:56:32;;;;;;;6.35;2.42;;;19.30;99.90;;;;;;5071850;28;20410;-72
2023/06/23 02:59:05;;;;;;;5.45;2.20;;;19.30;99.90;;;;;;5091441;28;20832;-72
2023/06/23 03:01:36;;;;;;;5.07;2.42;;;19.30;99.90;;;;;;5088258;28;20451;-72
2023/06/23 03:04:01;;;;;;;6.15;2.58;;;19.30;99.90;;;;;;5086732;28;20422;-72
2023/06/23 03:06:27;;;;;;;5.73;2.37;;;19.30;99.90;;;;;;5087492;28;20406;-72
2023/06/23 03:08:53;;;;;;;5.75;2.80;;;19.30;99.90;;;;;;5089814;28;20848;-71
2023/06/23 03:11:20;;;;;;;6.15;2.63;;;19.30;99.90;;;;;;5088391;28;20413;-72
2023/06/23 03:13:47;;;;;;;5.80;2.67;;;19.30;99.90;;;;;;5083841;28;20826;-71
2023/06/23 03:16:18;;;;;;;5.10;2.70;;;19.20;99.90;;;;;;5069215;28;20481;-71
2023/06/23 03:18:53;;;;;;;5.85;2.55;;;19.20;99.90;;;;;;5068557;28;21047;-71
2023/06/23 03:21:21;;;;;;;6.03;2.55;;;19.20;99.90;;;;;;5086634;28;20510;-71
2023/06/23 03:23:50;;;;;;;5.32;2.63;;;19.20;99.90;;;;;;5097726;28;20416;-72
2023/06/23 03:26:17;;;;;;;6.05;2.67;;;19.20;99.90;;;;;;5095006;28;20405;-71
2023/06/23 03:28:43;;;;;;;8.52;2.67;;;19.20;99.90;;;;;;5091049;28;20503;-71
2023/06/23 03:31:12;;;;;;;7.00;2.90;;;19.20;99.90;;;;;;5078522;28;20443;-71
2023/06/23 03:33:42;;;;;;;7.57;2.80;;;19.20;99.90;;;;;;5099531;28;20413;-71
2023/06/23 03:36:25;;;;;;;6.55;2.70;;;19.20;99.90;;;;;;5097355;28;20409;-72
2023/06/23 03:39:17;;;;;;;6.97;3.00;;;19.10;99.90;;;;;;5091914;28;20409;-72
2023/06/23 03:41:43;;;;;;;9.13;3.03;;;19.10;99.90;;;;;;5092167;28;20410;-71
2023/06/23 03:44:23;;;;;;;4.60;2.78;;;19.10;99.90;;;;;;5092767;28;20434;-71
2023/06/23 03:46:55;;;;;;;6.93;3.63;;;19.10;99.90;;;;;;5082333;28;20422;-71
2023/06/23 03:49:25;;;;;;;7.47;3.40;;;19.10;99.90;;;;;;5073846;28;20406;-71
2023/06/23 03:51:55;;;;;;;8.00;3.65;;;19.00;99.90;;;;;;5091633;28;20402;-71
2023/06/23 03:54:22;;;;;;;10.82;4.05;;;19.00;99.90;;;;;;5091351;28;20895;-71
2023/06/23 03:56:50;;;;;;;7.47;3.80;;;19.00;99.90;;;;;;5089703;28;20406;-72
2023/06/23 03:59:17;;;;;;;6.18;3.70;;;18.90;99.90;;;;;;5102982;28;20453;-71
2023/06/23 04:01:44;;;;;;;7.32;3.88;;;18.90;99.90;;;;;;5091279;28;20944;-71
2023/06/23 04:04:11;;;;;;;7.93;3.92;;;18.90;99.90;;;;;;5110518;28;20546;-72
2023/06/23 04:06:39;;;;;;;7.55;3.80;;;18.90;99.90;;;;;;5104109;28;20439;-72
2023/06/23 04:09:07;;;;;;;7.83;4.03;;;18.90;99.90;;;;;;5091919;28;20397;-71
2023/06/23 04:11:35;;;;;;;8.00;4.00;;;18.90;99.90;;;;;;5091502;28;20456;-72
2023/06/23 04:14:02;;;;;;;8.32;4.13;;;18.90;99.90;;;;;;5091610;28;20410;-72
2023/06/23 04:16:28;;;;;;;9.43;4.20;;;18.90;99.90;;;;;;5093090;28;20398;-71
2023/06/23 04:18:56;;;;;;;7.50;3.67;;;18.80;99.90;;;;;;5090700;28;20851;-71
2023/06/23 04:21:22;;;;;;;9.05;4.30;;;18.80;99.90;;;;;;5092159;28;20398;-71
2023/06/23 04:23:51;;;;;;;7.63;3.90;;;18.90;99.90;;;;;;5090913;28;20516;-71
2023/06/23 04:26:17;;;;;;;7.47;3.65;;;18.80;99.90;;;;;;5091287;28;20413;-71
2023/06/23 04:28:43;;;;;;;8.83;4.33;;;18.80;99.90;;;;;;5073322;28;20410;-71
2023/06/23 04:31:11;;;;;;;8.55;4.38;;;18.80;99.90;;;;;;5089509;28;20410;-71
2023/06/23 04:33:37;;;;;;;9.00;4.18;;;18.90;99.90;;;;;;5090843;28;20410;-71
2023/06/23 04:36:16;;;;;;;8.77;4.13;;;18.90;99.90;;;;;;5090827;28;20410;-71
2023/06/23 04:38:47;;;;;;;8.40;4.33;;;18.90;99.90;;;;;;5089472;28;20409;-71
2023/06/23 04:41:19;;;;;;;9.35;4.45;;;18.90;99.90;;;;;;5089925;28;20470;-71
2023/06/23 04:43:49;;;;;;;9.25;3.90;;;18.90;99.90;;;;;;5090988;28;20430;-71
2023/06/23 04:46:26;;;;;;;7.70;3.67;;;19.00;99.90;;;;;;5072225;28;20421;-71
2023/06/23 04:48:56;;;;;;;7.75;3.97;;;19.00;99.90;;;;;;5090463;28;20439;-71
2023/06/23 04:51:28;;;;;;;8.05;4.10;;;19.00;99.90;;;;;;5089599;28;20918;-71
2023/06/23 04:54:00;;;;;;;7.95;3.85;;;19.00;99.90;;;;;;5090277;28;20887;-71
2023/06/23 04:56:31;;;;;;;8.00;4.50;;;19.00;99.90;;;;;;5091806;28;20438;-71
2023/06/23 04:59:02;;;;;;;9.50;4.47;;;19.00;99.90;;;;;;5087748;28;20402;-71
2023/06/23 05:01:29;;;;;;;8.20;3.85;;;19.00;99.90;;;;;;5090475;28;20441;-71
2023/06/23 05:03:57;;;;;;;8.40;3.80;;;19.00;99.90;;;;;;5090079;28;20426;-71
2023/06/23 05:06:24;;;;;;;8.80;4.00;;;19.10;99.90;;;;;;5089370;28;20429;-72
2023/06/23 05:08:51;;;;;;;8.93;4.00;;;19.10;99.90;;;;;;5082575;28;20402;-71
2023/06/23 05:11:18;;;;;;;9.13;4.47;;;19.00;99.90;;;;;;5095050;28;21377;-72
2023/06/23 05:13:46;;;;;;;8.75;4.20;;;19.10;99.90;;;;;;5092880;28;20763;-72
2023/06/23 05:16:14;;;;;;;5.95;3.60;;;19.10;99.90;;;;;;5090590;28;20414;-71
2023/06/23 05:18:41;;;;;;;7.38;3.80;;;19.10;99.90;;;;;;5090011;28;20451;-71
2023/06/23 05:21:08;;;;;;;8.93;4.43;;;19.10;99.90;;;;;;5092445;28;20402;-70
2023/06/23 05:23:36;;;;;;;8.10;4.10;;;19.10;99.90;;;;;;5097751;28;20424;-70
2023/06/23 05:26:05;;;;;;;8.00;3.70;;;19.20;99.90;;;;;;5100993;28;20403;-70
2023/06/23 05:28:34;;;;;;;7.20;3.97;;;19.20;99.90;;;;;;5104011;28;20400;-70
2023/06/23 05:31:01;;;;;;;5.90;3.40;;;19.30;99.90;;;;;;5103416;28;20400;-70
2023/06/23 05:33:29;;;;;;;7.82;3.60;;;19.30;99.90;;;;;;5102709;28;20413;-71
2023/06/23 05:35:56;;;;;;;9.30;3.75;;;19.30;99.90;;;;;;5104207;28;20445;-71
2023/06/23 05:38:23;;;;;;;7.45;4.00;;;19.40;99.90;;;;;;5102849;28;20495;-71
2023/06/23 05:40:49;;;;;;;11.80;4.05;;;19.40;99.90;;;;;;5104466;28;20464;-71
2023/06/23 05:43:14;;;;;;;8.53;3.90;;;19.40;99.90;;;;;;5104251;28;20416;-71
2023/06/23 05:45:40;;;;;;;5.57;3.70;;;19.50;99.90;;;;;;5103767;28;20396;-71
2023/06/23 05:48:05;;;;;;;8.03;3.57;;;19.40;99.90;;;;;;5102661;28;21324;-71
2023/06/23 05:50:34;;;;;;;9.27;4.60;;;19.50;99.90;;;;;;5103318;28;20408;-71
2023/06/23 05:53:20;;;;;;;8.18;4.00;;;19.50;99.90;;;;;;5102808;28;20412;-71
2023/06/23 05:56:13;;;;;;;8.20;4.15;;;19.50;99.90;;;;;;5087338;28;20397;-71
2023/06/23 05:58:47;;;;;;;9.32;4.20;;;19.50;99.90;;;;;;5103008;28;20842;-71
2023/06/23 06:01:19;;;;;;;8.00;4.47;;;19.50;99.90;;;;;;5103318;28;20408;-71
2023/06/23 06:03:52;;;;;;;8.90;4.87;;;19.50;99.90;;;;;;5079166;28;20422;-71
2023/06/23 06:06:20;;;;;;;10.90;5.30;;;19.50;99.90;;;;;;5100185;28;20458;-71
2023/06/23 06:08:48;;;;;;;9.07;4.57;;;19.50;99.90;;;;;;5105943;28;20411;-71
2023/06/23 06:11:16;;;;;;;10.25;5.60;;;19.50;99.90;;;;;;5103042;28;20398;-71
2023/06/23 06:13:46;;;;;;;8.07;5.13;;;19.50;99.90;;;;;;5106717;28;20407;-71
2023/06/23 06:16:12;;;;;;;10.27;5.53;;;19.40;99.90;;;;;;5102610;28;20459;-71
2023/06/23 06:18:39;;;;;;;8.52;5.32;;;19.40;99.90;;;;;;5106707;28;20483;-71
2023/06/23 06:21:07;;;;;;;8.90;5.15;;;19.40;99.90;;;;;;5100785;28;20417;-71
2023/06/23 06:23:33;;;;;;;8.55;5.63;;;19.40;99.90;;;;;;5098785;28;20777;-71
2023/06/23 06:26:01;;;;;;;9.45;5.47;;;19.40;99.90;;;;;;5107563;28;21179;-71
2023/06/23 06:28:28;;;;;;;9.50;5.50;;;19.40;99.90;;;;;;5090845;28;20439;-71
2023/06/23 06:30:57;;;;;;;9.80;5.60;;;19.40;99.90;;;;;;5090889;28;20398;-71
2023/06/23 06:33:24;;;;;;;11.07;5.90;;;19.40;99.90;;;;;;5070393;28;20406;-71
2023/06/23 06:35:51;;;;;;;9.30;5.72;;;19.40;99.90;;;;;;5087565;28;20410;-71
2023/06/23 06:38:19;;;;;;;11.15;5.80;;;19.50;99.90;;;;;;5070065;28;20417;-71
2023/06/23 06:40:49;;;;;;;9.43;5.05;;;19.50;99.90;;;;;;5088302;28;20406;-71
2023/06/23 06:43:15;;;;;;;11.43;4.93;;;19.60;99.90;;;;;;5088901;28;20467;-71
2023/06/23 06:45:41;;;;;;;7.27;4.50;;;19.60;99.90;;;;;;5087058;28;20429;-71
2023/06/23 06:48:08;;;;;;;9.15;4.75;;;19.80;99.90;;;;;;5088731;28;20489;-71
2023/06/23 06:50:35;;;;;;;8.48;3.97;;;19.80;99.90;;;;;;5085966;28;20417;-71
2023/06/23 06:53:02;;;;;;;8.35;3.75;;;20.00;99.90;;;;;;5088476;28;20410;-71
2023/06/23 06:55:29;;;;;;;7.30;3.47;;;20.00;99.90;;;;;;5087893;28;20417;-71
2023/06/23 06:57:55;;;;;;;6.05;3.60;;;20.10;99.90;;;;;;5087670;28;20809;-71
2023/06/23 07:00:22;;;;;;;7.60;3.13;;;20.10;99.90;;;;;;5072553;28;20413;-71
2023/06/23 07:02:48;;;;;;;6.45;3.20;;;20.10;99.90;;;;;;5069571;28;20406;-71
2023/06/23 07:05:14;;;;;;;5.73;3.20;;;20.20;99.90;;;;;;5095041;28;20436;-71
2023/06/23 07:07:39;;;;;;;8.50;3.13;;;20.20;99.90;;;;;;5091243;28;21227;-71
2023/06/23 07:10:06;;;;;;;5.03;2.90;;;20.20;99.90;;;;;;5095873;28;20400;-71
2023/06/23 07:12:32;;;;;;;5.18;2.95;;;20.20;99.90;;;;;;5090286;28;20420;-71
2023/06/23 07:14:57;;;;;;;6.28;2.63;;;20.30;99.90;;;;;;5094928;28;20450;-71
2023/06/23 07:17:23;;;;;;;6.18;2.88;;;20.30;99.90;;;;;;5092088;28;20405;-71
2023/06/23 07:19:49;;;;;;;6.15;3.25;;;20.30;99.90;;;;;;5091818;28;20411;-71
2023/06/23 07:22:14;;;;;;;5.90;3.10;;;20.30;99.90;;;;;;5070328;28;20402;-71
2023/06/23 07:24:40;;;;;;;4.65;2.55;;;20.40;99.90;;;;;;5087486;28;20421;-71
2023/06/23 07:27:08;;;;;;;7.07;2.90;;;20.50;99.90;;;;;;5087920;28;20421;-71
2023/06/23 07:29:34;;;;;;;3.97;2.53;;;20.50;99.90;;;;;;5087724;28;20429;-71
2023/06/23 07:32:01;;;;;;;4.18;2.60;;;20.50;99.90;;;;;;5086920;28;20403;-71
2023/06/23 07:34:28;;;;;;;3.97;2.50;;;20.50;99.90;;;;;;5088198;28;20762;-72
2023/06/23 07:36:54;;;;;;;4.50;2.60;;;20.60;99.90;;;;;;5086165;28;20497;-71
2023/06/23 07:39:19;;;;;;;4.95;2.78;;;20.60;99.90;;;;;;5088190;28;20410;-71
2023/06/23 07:41:45;;;;;;;3.97;2.30;;;20.70;99.90;;;;;;5087631;28;20406;-71
2023/06/23 07:44:11;;;;;;;4.07;2.30;;;20.80;99.90;;;;;;5087668;28;20430;-71
2023/06/23 07:46:36;;;;;;;5.10;3.00;;;20.90;99.90;;;;;;5087318;28;20406;-71
2023/06/23 07:49:02;;;;;;;5.10;2.10;;;21.00;99.90;;;;;;5086403;28;20426;-72
2023/06/23 07:51:28;;;;;;;4.63;2.70;;;21.10;99.90;;;;;;5085588;28;20410;-71
2023/06/23 07:53:53;;;;;;;4.00;2.60;;;21.30;99.90;;;;;;5086117;28;20494;-72
2023/06/23 07:56:19;;;;;;;5.35;2.70;;;21.30;99.90;;;;;;5087003;28;20401;-71
2023/06/23 07:58:45;;;;;;;6.47;2.80;;;21.40;99.90;;;;;;5086646;28;20409;-71
2023/06/23 08:01:12;;;;;;;4.30;2.53;;;21.50;99.90;;;;;;5087009;28;20740;-71
2023/06/23 08:03:38;;;;;;;4.35;2.55;;;21.60;99.90;;;;;;5087363;28;20426;-71
2023/06/23 08:06:03;;;;;;;3.22;2.30;;;21.70;99.90;;;;;;5087831;28;20907;-71
2023/06/23 08:08:29;;;;;;;4.47;2.63;;;21.80;99.90;;;;;;5086635;28;20425;-71
2023/06/23 08:10:54;;;;;;;3.33;2.40;;;21.80;99.90;;;;;;5091493;28;20409;-72
2023/06/23 08:13:20;;;;;;;3.55;2.40;;;21.80;99.90;;;;;;5090391;28;20397;-71
2023/06/23 08:15:46;;;;;;;4.63;2.20;;;21.90;99.90;;;;;;5091440;28;20410;-71
2023/06/23 08:18:12;;;;;;;2.92;2.00;;;22.00;99.90;;;;;;5091407;28;20406;-71
2023/06/23 08:20:38;;;;;;;3.15;2.25;;;22.00;99.90;;;;;;5090190;28;20406;-71
2023/06/23 08:23:04;;;;;;;3.13;2.00;;;22.10;99.90;;;;;;5089947;28;20480;-71
2023/06/23 08:25:29;;;;;;;4.00;2.42;;;22.20;99.90;;;;;;5090908;28;20410;-71
2023/06/23 08:27:55;;;;;;;3.80;2.50;;;22.20;99.90;;;;;;5096963;28;20804;-71
2023/06/23 08:30:29;;;;;;;4.50;2.33;;;22.30;99.90;;;;;;5098200;28;20453;-72
2023/06/23 08:32:55;;;;;;;4.18;2.47;;;22.40;99.90;;;;;;5077740;28;20767;-71
2023/06/23 08:35:21;;;;;;;4.13;2.65;;;22.40;99.90;;;;;;5091161;28;20497;-71
2023/06/23 08:37:47;;;;;;;4.47;2.35;;;22.40;99.90;;;;;;5073537;28;20413;-71
2023/06/23 08:40:14;;;;;;;4.20;2.60;;;22.40;99.90;;;;;;5089949;28;20957;-71
2023/06/23 08:42:39;;;;;;;3.42;2.20;;;22.50;99.90;;;;;;5093757;28;20413;-71
2023/06/23 08:45:07;;;;;;;2.90;1.90;;;22.50;99.90;;;;;;5106218;28;20878;-71
2023/06/23 08:47:37;;;;;;;3.97;2.15;;;22.60;99.60;;;;;;5101264;28;20392;-71
2023/06/23 08:50:03;;;;;;;4.35;2.28;;;22.60;99.40;;;;;;5097823;28;20401;-71
2023/06/23 08:52:29;;;;;;;3.15;2.50;;;22.70;99.70;;;;;;5101150;28;20404;-71
2023/06/23 08:54:54;;;;;;;4.43;2.33;;;22.80;99.70;;;;;;5096264;28;20490;-72
2023/06/23 08:57:21;;;;;;;4.10;2.33;;;22.90;98.50;;;;;;5094341;28;20450;-71
2023/06/23 08:59:46;;;;;;;4.53;2.25;;;23.00;98.80;;;;;;5089337;28;20443;-71
2023/06/23 09:02:12;;;;;;;3.73;2.40;;;23.00;98.70;;;;;;5094183;28;20485;-71
2023/06/23 09:04:39;;;;;;;3.20;2.20;;;23.10;98.40;;;;;;5080752;28;20430;-71
2023/06/23 09:07:05;;;;;;;4.30;2.40;;;23.20;98.00;;;;;;5103612;28;20411;-71
2023/06/23 09:09:30;;;;;;;3.87;2.43;;;23.20;98.20;;;;;;5099018;28;20776;-72
2023/06/23 09:11:56;;;;;;;5.40;2.50;;;23.20;97.80;;;;;;5104077;28;20423;-71
2023/06/23 09:14:28;;;;;;;3.20;2.28;;;23.30;97.80;;;;;;5098789;28;20406;-72
2023/06/23 09:16:55;;;;;;;4.68;2.40;;;23.30;97.30;;;;;;5103356;27;20397;-71
2023/06/23 09:19:22;;;;;;;5.60;2.70;;;23.40;97.30;;;;;;5101164;28;20749;-71
2023/06/23 09:21:48;;;;;;;3.72;2.38;;;23.40;97.60;;;;;;5095233;28;20498;-71
2023/06/23 09:24:14;;;;;;;5.70;2.80;;;23.50;97.20;;;;;;5091374;28;20441;-71
2023/06/23 09:26:44;;;;;;;4.37;2.70;;;23.50;97.20;;;;;;5107402;28;20743;-72
2023/06/23 09:29:24;;;;;;;4.17;2.80;;;23.60;97.50;;;;;;5107149;28;21135;-72
2023/06/23 09:31:51;;;;;;;3.33;2.20;;;23.80;97.40;;;;;;5109302;28;20396;-72
2023/06/23 09:34:21;;;;;;;4.28;3.47;;;23.90;97.60;;;;;;5107977;28;20491;-72
2023/06/23 09:36:47;;;;;;;3.58;2.88;;;24.10;97.40;;;;;;5109462;28;20392;-72
2023/06/23 09:39:14;;;;;;;4.60;2.47;;;24.30;97.30;;;;;;5102167;28;20459;-72
2023/06/23 09:41:46;;;;;;;5.77;2.20;;;24.70;97.10;;;;;;5101784;28;20408;-72
2023/06/23 09:44:13;;;;;;;4.38;2.60;;;24.90;96.80;;;;;;5107208;28;20527;-72
2023/06/23 09:46:41;;;;;;;3.83;2.70;;;25.20;96.70;;;;;;5108367;28;20403;-72
2023/06/23 09:49:07;;;;;;;;;;;25.30;96.20;;;;;;5091482;28;20405;-72
2023/06/23 09:51:37;;;;;;;3.47;1.98;;;25.50;95.70;;;;;;5091229;28;19920;-72
2023/06/23 09:54:03;;;;;;;4.05;2.30;;;25.60;96.00;;;;;;5090141;28;20907;-72
2023/06/23 09:56:29;;;;;;;4.70;1.95;;;25.80;95.90;;;;;;5090697;28;20408;-72
2023/06/23 09:58:54;;;;;;;3.53;1.90;;;26.10;95.60;;;;;;5077527;28;20406;-72
2023/06/23 10:01:20;;;;;;;;;;;26.30;95.00;;;;;;5091844;28;20040;-72
2023/06/23 10:03:50;;;;;;;2.60;1.70;;;26.40;94.80;;;;;;5073246;28;19919;-72
2023/06/23 10:06:32;;;;;;;3.17;1.98;;;26.50;94.60;;;;;;5072934;28;20896;-72
2023/06/23 10:08:58;;;;;;;;;;;26.60;94.20;;;;;;5091837;28;20122;-72
2023/06/23 10:11:34;;;;;;;;;;;26.70;93.10;;;;;;5090833;28;19920;-72
2023/06/23 10:14:01;;;;;;;;;;;26.80;93.00;;;;;;5091241;28;19986;-72
2023/06/23 10:16:27;;;;;;;;;;;26.90;93.00;;;;;;5091998;28;20309;-72
2023/06/23 10:18:53;;;;;;;;;;;27.00;92.20;;;;;;5090747;28;19927;-73
2023/06/23 10:21:20;;;;;;;2.72;1.80;;;27.00;92.60;;;;;;5090659;28;19920;-73
2023/06/23 10:23:48;;;;;;;3.37;2.10;;;27.10;91.70;;;;;;5088057;28;20422;-72
2023/06/23 10:26:16;;;;;;;3.28;2.20;;;27.10;92.60;;;;;;5087504;28;20417;-73
2023/06/23 10:28:45;;;;;;;3.10;1.85;;;27.20;92.00;;;;;;5099425;28;20894;-72
2023/06/23 10:31:12;;;;;;;2.47;1.70;;;27.40;91.60;;;;;;5086693;28;20428;-72
2023/06/23 10:33:40;;;;;;;2.83;1.83;;;27.50;91.00;;;;;;5088523;28;20406;-72
2023/06/23 10:36:08;;;;;;;3.00;1.65;;;27.70;91.20;;;;;;5108311;28;20412;-72
2023/06/23 10:38:35;;;;;;;3.17;1.83;;;27.90;91.10;;;;;;5093113;28;20445;-72
2023/06/23 10:41:02;;;;;;;3.72;2.25;;;28.00;90.50;;;;;;5087288;28;20410;-72
2023/06/23 10:43:29;;;;;;;;;;;28.10;90.20;;;;;;5090104;28;20055;-72
2023/06/23 10:45:55;;;;;;;;;;;28.10;90.00;;;;;;5090217;28;19927;-72
2023/06/23 10:48:21;;;;;;;;;;;28.00;89.80;;;;;;5089648;28;19919;-72
2023/06/23 10:50:47;;;;;;;;;;;28.00;90.50;;;;;;5090446;28;19920;-72
2023/06/23 10:53:17;;;;;;;5.72;1.92;;;28.00;89.90;;;;;;5089745;28;19970;-72
2023/06/23 10:55:45;;;;;;;3.85;2.00;;;28.00;90.40;;;;;;5089633;28;20452;-72
2023/06/23 10:58:16;;;;;;;3.33;2.08;;;28.00;90.10;;;;;;5087849;28;20791;-72
2023/06/23 11:00:54;;;;;;;3.50;1.80;;;28.10;90.30;;;;;;5087045;28;21276;-72
2023/06/23 11:03:33;;;;;;;3.17;1.90;;;28.10;88.80;;;;;;5087020;28;20906;-72
2023/06/23 11:06:02;;;;;;;;;;;28.10;88.60;;;;;;5089834;28;20135;-72
2023/06/23 11:08:29;;;;;;;;;;;28.10;88.60;;;;;;5091098;28;19927;-72
2023/06/23 11:11:01;;;;;;;4.10;2.03;;;28.10;87.50;;;;;;5090311;28;19966;-72
2023/06/23 11:13:43;;;;;;;4.82;2.17;;;28.30;88.50;;;;;;5087614;28;20441;-72
2023/06/23 11:16:26;;;;;;;4.10;2.10;;;28.30;88.90;;;;;;5070742;28;20429;-72
2023/06/23 11:18:54;;;;;;;4.60;2.10;;;28.40;87.60;;;;;;5088905;28;20547;-72
2023/06/23 11:21:32;;;;;;;3.72;2.20;;;28.40;87.50;;;;;;5087291;28;20403;-72
2023/06/23 11:24:09;;;;;;;3.92;2.30;;;28.30;87.80;;;;;;5087644;28;20479;-73
2023/06/23 11:26:35;;;;;;;5.47;2.35;;;28.30;87.60;;;;;;5106497;28;21163;-72
2023/06/23 11:29:01;;;;;;;4.15;2.60;;;28.30;87.80;;;;;;5107530;28;20532;-72
2023/06/23 11:31:30;;;;;;;4.10;2.60;;;28.40;88.70;;;;;;5099917;28;20447;-72
2023/06/23 11:33:55;;;;;;;4.65;2.65;;;28.70;88.40;;;;;;5087876;28;20539;-72
2023/06/23 11:36:24;;;;;;;3.77;2.80;;;28.90;88.30;;;;;;5087425;28;20398;-72
2023/06/23 11:38:50;;;;;;;;;;;29.20;88.10;;;;;;5091791;28;20125;-72
2023/06/23 11:41:26;;;;;;;;;;;29.40;86.60;;;;;;5108089;28;20439;-72
2023/06/23 11:43:58;;;;;;;;;;;29.20;84.30;;;;;;5074282;28;19920;-72
2023/06/23 11:46:24;;;;;;;;;;;29.10;85.40;;;;;;5094144;28;19958;-72
2023/06/23 11:48:50;;;;;;;;;;;29.10;85.50;;;;;;5093064;28;20373;-73
2023/06/23 11:51:16;;;;;;;;;;;29.00;85.80;;;;;;5094105;28;19924;-72
2023/06/23 11:53:41;;;;;;;;;;;29.00;84.90;;;;;;5092097;28;20309;-72
2023/06/23 11:56:08;;;;;;;;;;;28.90;84.80;;;;;;5105271;28;19920;-72
2023/06/23 11:58:34;;;;;;;6.10;3.40;;;28.80;85.20;;;;;;5111637;28;19927;-73
2023/06/23 12:01:01;;;;;;;3.95;2.90;;;28.80;84.70;;;;;;5112558;28;20039;-72
2023/06/23 12:03:30;;;;;;;4.80;3.60;;;28.80;84.70;;;;;;5092753;27;20401;-72
2023/06/23 12:05:56;;;;;;;6.32;2.97;;;28.70;84.50;;;;;;5104435;28;20415;-72
2023/06/23 12:08:26;;;;;;;5.43;3.28;;;28.70;85.30;;;;;;5091118;28;20402;-72
2023/06/23 12:10:53;;;;;;;4.30;3.17;;;28.80;84.70;;;;;;5090813;28;20401;-72
2023/06/23 12:13:20;;;;;;;5.93;3.30;;;29.00;84.80;;;;;;5072847;28;20919;-72
2023/06/23 12:15:45;;;;;;;4.47;3.25;;;29.10;84.20;;;;;;5091084;28;21021;-72
2023/06/23 12:18:11;;;;;;;9.47;3.53;;;29.30;84.10;;;;;;5090289;28;20492;-72
2023/06/23 12:20:38;;;;;;;;;;;29.30;84.10;;;;;;5093906;28;20398;-73
2023/06/23 12:23:10;;;;;;;;;;;29.40;83.10;;;;;;5092583;28;19959;-72
2023/06/23 12:25:40;;;;;;;;;;;29.50;83.40;;;;;;5092816;28;19924;-73
2023/06/23 12:28:10;;;;;;;;;;;29.60;81.60;;;;;;5091699;28;20400;-72
2023/06/23 12:30:40;;;;;;;;;;;29.60;82.10;;;;;;5091657;28;19924;-73
2023/06/23 12:33:20;;;;;;;;;;;29.60;81.40;;;;;;5092788;28;19927;-73
2023/06/23 12:35:59;;;;;;;;;;;29.60;80.60;;;;;;5093889;28;19962;-72
2023/06/23 12:38:25;;;;;;;;;;;29.70;81.20;;;;;;5092275;28;20418;-72
2023/06/23 12:40:51;;;;;;;;;;;29.70;79.80;;;;;;5090332;28;19967;-72
2023/06/23 12:43:17;;;;;;;;;;;29.80;79.80;;;;;;5091484;28;19978;-73
2023/06/23 12:45:43;;;;;;;;;;;30.00;80.40;;;;;;5073886;28;20499;-72
2023/06/23 12:48:08;;;;;;;;;;;30.00;79.20;;;;;;5092074;28;19923;-72
2023/06/23 12:50:37;;;;;;;;;;;29.90;79.90;;;;;;5091818;28;19927;-73
2023/06/23 12:53:02;;;;;;;;;;;29.70;78.00;;;;;;5092007;28;20309;-73
2023/06/23 12:55:28;;;;;;;;;;;29.80;77.50;;;;;;5091392;28;19920;-73
2023/06/23 12:57:54;;;;;;;;;;;29.80;76.40;;;;;;5092850;28;19920;-72
2023/06/23 13:00:21;;;;;;;;;;;29.60;75.90;;;;;;5092095;28;20002;-73
2023/06/23 13:02:48;;;;;;;;;;;29.60;77.50;;;;;;5092433;28;19927;-73
2023/06/23 13:05:15;;;;;;;;;;;29.70;76.70;;;;;;5086347;28;20800;-73